Williamsburg, Indiana
Current Conditions -  °F | °C
As of 8:53 AM on Tuesday 21 Oct 2014 (Local Time) from KMIE Reporting Station
Broken Clouds Broken Clouds  
Wind Chill: 45°   Ceiling: 5000
Heat Index: 49°   Visibility: 10mi
Dew Point: 42°   Wind: 9mph
Humidity: 77%   Direction: 320°NW
Pressure: 30.02"   Gusts: NA
Location:  39.95°N, 85°W
Report Text: KMIE 211253Z 32008KT 10SM BKN050 09/06 A3002 RMK AO2 SLP164 T00940056
Loading
Personal Weather Stations






























Interactive Weather Map
Tropical Storm Tracking
New forecast layout! Learn more

10-Day Weather Forecast

Advertisements
Track Severe Weather on mobile